New Philadelphia, Illinois
Current Conditions -  °F | °C
As of 1:35 PM on Saturday 25 Oct 2014 (Local Time) from KMQB Reporting Station
Clear Clear  
Wind Chill: 74°   Ceiling: Unl
Heat Index: 74°   Visibility: 10mi
Dew Point: 42°   Wind: 8mph
Humidity: 32%   Direction: 330°NNW
Pressure: 30.05"   Gusts: NA
Location:  40.4998°N, 90.3918°W
Report Text: KMQB 251835Z AUTO 33007KT 10SM CLR 23/06 A3005 RMK AO2 T02320055
Loading
Personal Weather Stations






























Interactive Weather Map
Tropical Storm Tracking
New forecast layout! Learn more

10-Day Weather Forecast

Advertisements
Track Severe Weather on mobile